Metar z pełnej godziny Komunikat METAR ze strony awiacja.imgw.pl Metar G00 EPKK METAR EPKK 220600Z 24011KT CAVOK M01/M05 Q1028 =